sensor_id;sensor_type;location;lat;lon;timestamp;P1;durP1;ratioP1;P2;durP2;ratioP2
62535;SDS011;63050;47.514;18.920;2023-06-10T00:01:16;11.40;;;2.70;;
62535;SDS011;63050;47.514;18.920;2023-06-10T00:06:18;3.20;;;2.40;;
62535;SDS011;63050;47.514;18.920;2023-06-10T00:11:22;6.10;;;2.50;;
62535;SDS011;63050;47.514;18.920;2023-06-10T00:16:23;3.90;;;2.80;;
62535;SDS011;63050;47.514;18.920;2023-06-10T00:21:26;8.60;;;2.80;;
62535;SDS011;63050;47.514;18.920;2023-06-10T00:26:31;8.70;;;2.90;;
62535;SDS011;63050;47.514;18.920;2023-06-10T00:31:33;4.20;;;2.60;;
62535;SDS011;63050;47.514;18.920;2023-06-10T00:36:35;6.40;;;2.80;;
62535;SDS011;63050;47.514;18.920;2023-06-10T00:41:37;7.50;;;3.80;;
62535;SDS011;63050;47.514;18.920;2023-06-10T00:46:39;8.40;;;4.10;;
62535;SDS011;63050;47.514;18.920;2023-06-10T00:51:40;10.10;;;4.10;;
62535;SDS011;63050;47.514;18.920;2023-06-10T00:56:42;9.70;;;3.20;;
62535;SDS011;63050;47.514;18.920;2023-06-10T01:01:45;7.10;;;3.00;;
62535;SDS011;63050;47.514;18.920;2023-06-10T01:07:00;6.90;;;3.50;;
62535;SDS011;63050;47.514;18.920;2023-06-10T01:12:31;6.50;;;3.50;;
62535;SDS011;63050;47.514;18.920;2023-06-10T01:17:37;7.50;;;3.10;;
62535;SDS011;63050;47.514;18.920;2023-06-10T01:22:55;9.60;;;2.80;;
62535;SDS011;63050;47.514;18.920;2023-06-10T01:28:03;8.70;;;2.70;;
62535;SDS011;63050;47.514;18.920;2023-06-10T01:33:08;5.00;;;3.00;;
62535;SDS011;63050;47.514;18.920;2023-06-10T01:38:10;8.90;;;3.40;;
62535;SDS011;63050;47.514;18.920;2023-06-10T01:43:13;10.60;;;3.10;;
62535;SDS011;63050;47.514;18.920;2023-06-10T01:48:14;6.40;;;2.50;;
62535;SDS011;63050;47.514;18.920;2023-06-10T01:53:16;7.40;;;2.90;;
62535;SDS011;63050;47.514;18.920;2023-06-10T01:58:18;10.40;;;2.70;;
62535;SDS011;63050;47.514;18.920;2023-06-10T02:03:20;6.40;;;2.90;;
62535;SDS011;63050;47.514;18.920;2023-06-10T02:08:21;4.90;;;2.70;;
62535;SDS011;63050;47.514;18.920;2023-06-10T02:13:23;11.00;;;2.90;;
62535;SDS011;63050;47.514;18.920;2023-06-10T02:18:26;4.70;;;2.40;;
62535;SDS011;63050;47.514;18.920;2023-06-10T02:23:28;9.10;;;2.80;;
62535;SDS011;63050;47.514;18.920;2023-06-10T02:28:31;8.70;;;2.60;;
62535;SDS011;63050;47.514;18.920;2023-06-10T02:33:33;6.60;;;2.70;;
62535;SDS011;63050;47.514;18.920;2023-06-10T02:38:34;5.00;;;2.50;;
62535;SDS011;63050;47.514;18.920;2023-06-10T02:43:36;4.40;;;2.00;;
62535;SDS011;63050;47.514;18.920;2023-06-10T02:48:45;6.70;;;2.20;;
62535;SDS011;63050;47.514;18.920;2023-06-10T02:53:48;3.70;;;2.30;;
62535;SDS011;63050;47.514;18.920;2023-06-10T02:58:51;6.50;;;1.80;;
62535;SDS011;63050;47.514;18.920;2023-06-10T03:03:53;3.40;;;2.10;;
62535;SDS011;63050;47.514;18.920;2023-06-10T03:08:57;5.90;;;2.30;;
62535;SDS011;63050;47.514;18.920;2023-06-10T03:13:59;5.80;;;2.20;;
62535;SDS011;63050;47.514;18.920;2023-06-10T03:19:01;6.70;;;2.20;;
62535;SDS011;63050;47.514;18.920;2023-06-10T03:24:04;4.00;;;2.10;;
62535;SDS011;63050;47.514;18.920;2023-06-10T03:29:10;8.00;;;2.20;;
62535;SDS011;63050;47.514;18.920;2023-06-10T03:34:12;5.60;;;2.10;;
62535;SDS011;63050;47.514;18.920;2023-06-10T03:39:14;7.60;;;2.60;;
62535;SDS011;63050;47.514;18.920;2023-06-10T03:44:15;4.70;;;2.10;;
62535;SDS011;63050;47.514;18.920;2023-06-10T03:49:16;4.60;;;2.40;;
62535;SDS011;63050;47.514;18.920;2023-06-10T03:54:18;3.40;;;2.60;;
62535;SDS011;63050;47.514;18.920;2023-06-10T03:59:23;5.00;;;2.40;;
62535;SDS011;63050;47.514;18.920;2023-06-10T04:04:25;8.00;;;2.50;;
62535;SDS011;63050;47.514;18.920;2023-06-10T04:09:26;4.80;;;2.90;;
62535;SDS011;63050;47.514;18.920;2023-06-10T04:14:27;4.90;;;3.00;;
62535;SDS011;63050;47.514;18.920;2023-06-10T04:19:28;5.40;;;4.00;;
62535;SDS011;63050;47.514;18.920;2023-06-10T04:24:32;7.60;;;4.60;;
62535;SDS011;63050;47.514;18.920;2023-06-10T04:29:34;5.50;;;4.20;;
62535;SDS011;63050;47.514;18.920;2023-06-10T04:34:36;5.40;;;4.60;;
62535;SDS011;63050;47.514;18.920;2023-06-10T04:39:40;5.50;;;3.50;;
62535;SDS011;63050;47.514;18.920;2023-06-10T04:44:42;4.80;;;3.00;;
62535;SDS011;63050;47.514;18.920;2023-06-10T04:49:44;4.00;;;2.70;;
62535;SDS011;63050;47.514;18.920;2023-06-10T04:54:45;5.50;;;2.80;;
62535;SDS011;63050;47.514;18.920;2023-06-10T04:59:47;3.00;;;2.40;;
62535;SDS011;63050;47.514;18.920;2023-06-10T05:04:48;5.00;;;2.50;;
62535;SDS011;63050;47.514;18.920;2023-06-10T05:09:50;5.40;;;2.80;;
62535;SDS011;63050;47.514;18.920;2023-06-10T05:14:52;3.50;;;2.40;;
62535;SDS011;63050;47.514;18.920;2023-06-10T05:19:54;4.40;;;2.80;;
62535;SDS011;63050;47.514;18.920;2023-06-10T05:24:56;4.20;;;2.50;;
62535;SDS011;63050;47.514;18.920;2023-06-10T05:29:58;3.30;;;2.50;;
62535;SDS011;63050;47.514;18.920;2023-06-10T05:34:59;3.00;;;2.50;;
62535;SDS011;63050;47.514;18.920;2023-06-10T05:40:02;3.10;;;2.20;;
62535;SDS011;63050;47.514;18.920;2023-06-10T05:45:05;4.40;;;2.60;;
62535;SDS011;63050;47.514;18.920;2023-06-10T05:50:07;3.70;;;3.00;;
62535;SDS011;63050;47.514;18.920;2023-06-10T05:55:10;3.80;;;2.50;;
62535;SDS011;63050;47.514;18.920;2023-06-10T06:00:12;6.10;;;2.70;;
62535;SDS011;63050;47.514;18.920;2023-06-10T06:05:14;3.80;;;2.50;;
62535;SDS011;63050;47.514;18.920;2023-06-10T06:10:16;3.00;;;2.30;;
62535;SDS011;63050;47.514;18.920;2023-06-10T06:15:18;5.00;;;2.60;;
62535;SDS011;63050;47.514;18.920;2023-06-10T06:20:20;3.40;;;2.30;;
62535;SDS011;63050;47.514;18.920;2023-06-10T06:25:21;4.50;;;2.20;;
62535;SDS011;63050;47.514;18.920;2023-06-10T06:30:22;3.10;;;2.30;;
62535;SDS011;63050;47.514;18.920;2023-06-10T06:35:23;2.90;;;2.40;;
62535;SDS011;63050;47.514;18.920;2023-06-10T06:40:24;4.70;;;2.40;;
62535;SDS011;63050;47.514;18.920;2023-06-10T06:45:25;4.20;;;2.50;;
62535;SDS011;63050;47.514;18.920;2023-06-10T06:50:27;5.60;;;2.60;;
62535;SDS011;63050;47.514;18.920;2023-06-10T06:55:28;4.90;;;2.30;;
62535;SDS011;63050;47.514;18.920;2023-06-10T07:00:30;3.00;;;2.20;;
62535;SDS011;63050;47.514;18.920;2023-06-10T07:05:32;3.30;;;2.40;;
62535;SDS011;63050;47.514;18.920;2023-06-10T07:10:33;2.80;;;2.40;;
62535;SDS011;63050;47.514;18.920;2023-06-10T07:15:34;3.80;;;2.40;;
62535;SDS011;63050;47.514;18.920;2023-06-10T07:20:36;6.20;;;2.80;;
62535;SDS011;63050;47.514;18.920;2023-06-10T07:25:41;8.30;;;2.40;;
62535;SDS011;63050;47.514;18.920;2023-06-10T07:30:43;4.10;;;2.40;;
62535;SDS011;63050;47.514;18.920;2023-06-10T07:35:44;5.80;;;2.90;;
62535;SDS011;63050;47.514;18.920;2023-06-10T07:40:46;4.00;;;2.50;;
62535;SDS011;63050;47.514;18.920;2023-06-10T07:45:47;3.90;;;2.80;;
62535;SDS011;63050;47.514;18.920;2023-06-10T07:50:49;4.00;;;3.00;;
62535;SDS011;63050;47.514;18.920;2023-06-10T07:55:50;3.80;;;3.00;;
62535;SDS011;63050;47.514;18.920;2023-06-10T08:00:51;3.00;;;2.40;;
62535;SDS011;63050;47.514;18.920;2023-06-10T08:05:53;3.10;;;2.60;;
62535;SDS011;63050;47.514;18.920;2023-06-10T08:10:54;4.20;;;2.60;;
62535;SDS011;63050;47.514;18.920;2023-06-10T08:15:55;5.10;;;2.50;;
62535;SDS011;63050;47.514;18.920;2023-06-10T08:20:57;3.40;;;2.60;;
62535;SDS011;63050;47.514;18.920;2023-06-10T08:25:58;4.30;;;2.40;;
62535;SDS011;63050;47.514;18.920;2023-06-10T08:31:01;3.50;;;2.90;;
62535;SDS011;63050;47.514;18.920;2023-06-10T08:36:02;4.30;;;2.60;;
62535;SDS011;63050;47.514;18.920;2023-06-10T08:41:04;2.90;;;2.40;;
62535;SDS011;63050;47.514;18.920;2023-06-10T08:46:07;3.60;;;2.60;;
62535;SDS011;63050;47.514;18.920;2023-06-10T08:51:10;3.10;;;2.10;;
62535;SDS011;63050;47.514;18.920;2023-06-10T08:56:11;2.50;;;2.10;;
62535;SDS011;63050;47.514;18.920;2023-06-10T09:01:13;4.10;;;2.20;;
62535;SDS011;63050;47.514;18.920;2023-06-10T09:06:14;3.80;;;2.00;;
62535;SDS011;63050;47.514;18.920;2023-06-10T09:11:15;3.10;;;2.10;;
62535;SDS011;63050;47.514;18.920;2023-06-10T09:16:17;2.90;;;2.10;;
62535;SDS011;63050;47.514;18.920;2023-06-10T09:21:19;3.50;;;2.10;;
62535;SDS011;63050;47.514;18.920;2023-06-10T09:26:20;2.20;;;1.70;;
62535;SDS011;63050;47.514;18.920;2023-06-10T09:31:29;2.70;;;1.80;;
62535;SDS011;63050;47.514;18.920;2023-06-10T09:36:31;2.00;;;1.50;;
62535;SDS011;63050;47.514;18.920;2023-06-10T09:41:34;3.00;;;1.40;;
62535;SDS011;63050;47.514;18.920;2023-06-10T09:46:36;2.00;;;1.30;;
62535;SDS011;63050;47.514;18.920;2023-06-10T09:51:37;2.30;;;1.60;;
62535;SDS011;63050;47.514;18.920;2023-06-10T09:56:38;4.80;;;1.80;;
62535;SDS011;63050;47.514;18.920;2023-06-10T10:01:43;2.30;;;1.70;;
62535;SDS011;63050;47.514;18.920;2023-06-10T10:06:55;5.00;;;2.10;;
62535;SDS011;63050;47.514;18.920;2023-06-10T10:11:56;2.60;;;2.20;;
62535;SDS011;63050;47.514;18.920;2023-06-10T10:16:58;4.00;;;2.30;;
62535;SDS011;63050;47.514;18.920;2023-06-10T10:22:06;3.40;;;2.10;;
62535;SDS011;63050;47.514;18.920;2023-06-10T10:27:14;5.00;;;2.40;;
62535;SDS011;63050;47.514;18.920;2023-06-10T10:32:20;5.50;;;3.80;;
62535;SDS011;63050;47.514;18.920;2023-06-10T10:37:24;6.10;;;3.90;;
62535;SDS011;63050;47.514;18.920;2023-06-10T10:42:26;7.60;;;3.90;;
62535;SDS011;63050;47.514;18.920;2023-06-10T10:47:28;4.50;;;3.30;;
62535;SDS011;63050;47.514;18.920;2023-06-10T10:52:48;3.60;;;3.20;;
62535;SDS011;63050;47.514;18.920;2023-06-10T10:58:03;5.40;;;3.10;;
62535;SDS011;63050;47.514;18.920;2023-06-10T11:03:08;4.90;;;3.70;;
62535;SDS011;63050;47.514;18.920;2023-06-10T11:09:00;3.00;;;2.70;;
62535;SDS011;63050;47.514;18.920;2023-06-10T11:13:35;3.40;;;3.10;;
62535;SDS011;63050;47.514;18.920;2023-06-10T11:18:39;5.10;;;3.80;;
62535;SDS011;63050;47.514;18.920;2023-06-10T11:23:41;4.20;;;3.80;;
62535;SDS011;63050;47.514;18.920;2023-06-10T11:33:48;3.80;;;3.30;;
62535;SDS011;63050;47.514;18.920;2023-06-10T11:38:53;3.90;;;3.60;;
62535;SDS011;63050;47.514;18.920;2023-06-10T11:44:00;4.10;;;3.50;;
62535;SDS011;63050;47.514;18.920;2023-06-10T11:49:03;6.50;;;3.50;;
62535;SDS011;63050;47.514;18.920;2023-06-10T11:54:08;3.50;;;3.20;;
62535;SDS011;63050;47.514;18.920;2023-06-10T12:04:11;3.80;;;3.50;;
62535;SDS011;63050;47.514;18.920;2023-06-10T12:09:23;3.30;;;3.00;;
62535;SDS011;63050;47.514;18.920;2023-06-10T12:19:55;3.00;;;2.70;;
62535;SDS011;63050;47.514;18.920;2023-06-10T12:24:57;4.20;;;3.10;;
62535;SDS011;63050;47.514;18.920;2023-06-10T12:30:00;3.60;;;2.70;;
62535;SDS011;63050;47.514;18.920;2023-06-10T12:35:06;3.40;;;2.90;;
62535;SDS011;63050;47.514;18.920;2023-06-10T12:40:07;2.90;;;2.10;;
62535;SDS011;63050;47.514;18.920;2023-06-10T12:45:10;3.50;;;2.50;;
62535;SDS011;63050;47.514;18.920;2023-06-10T12:50:13;3.50;;;2.30;;
62535;SDS011;63050;47.514;18.920;2023-06-10T12:55:15;3.30;;;2.30;;
62535;SDS011;63050;47.514;18.920;2023-06-10T13:00:16;7.40;;;2.20;;
62535;SDS011;63050;47.514;18.920;2023-06-10T13:05:19;2.80;;;2.20;;
62535;SDS011;63050;47.514;18.920;2023-06-10T13:10:21;3.80;;;1.90;;
62535;SDS011;63050;47.514;18.920;2023-06-10T13:15:22;2.40;;;2.00;;
62535;SDS011;63050;47.514;18.920;2023-06-10T13:20:23;2.50;;;1.90;;
62535;SDS011;63050;47.514;18.920;2023-06-10T13:25:25;6.50;;;1.70;;
62535;SDS011;63050;47.514;18.920;2023-06-10T13:30:26;2.90;;;1.60;;
62535;SDS011;63050;47.514;18.920;2023-06-10T13:35:27;2.30;;;1.60;;
62535;SDS011;63050;47.514;18.920;2023-06-10T13:40:29;2.30;;;1.70;;
62535;SDS011;63050;47.514;18.920;2023-06-10T13:45:32;2.20;;;1.40;;
62535;SDS011;63050;47.514;18.920;2023-06-10T13:50:33;2.20;;;1.80;;
62535;SDS011;63050;47.514;18.920;2023-06-10T13:55:35;3.20;;;2.00;;
62535;SDS011;63050;47.514;18.920;2023-06-10T14:00:36;3.50;;;2.10;;
62535;SDS011;63050;47.514;18.920;2023-06-10T14:05:38;4.50;;;1.80;;
62535;SDS011;63050;47.514;18.920;2023-06-10T14:10:40;3.00;;;1.80;;
62535;SDS011;63050;47.514;18.920;2023-06-10T14:15:42;2.60;;;2.20;;
62535;SDS011;63050;47.514;18.920;2023-06-10T14:20:44;3.30;;;2.30;;
62535;SDS011;63050;47.514;18.920;2023-06-10T14:25:45;4.40;;;1.90;;
62535;SDS011;63050;47.514;18.920;2023-06-10T14:30:47;2.40;;;1.40;;
62535;SDS011;63050;47.514;18.920;2023-06-10T14:35:49;3.30;;;1.90;;
62535;SDS011;63050;47.514;18.920;2023-06-10T14:40:50;2.10;;;1.90;;
62535;SDS011;63050;47.514;18.920;2023-06-10T14:45:53;2.10;;;1.80;;
62535;SDS011;63050;47.514;18.920;2023-06-10T14:50:56;5.30;;;1.80;;
62535;SDS011;63050;47.514;18.920;2023-06-10T14:55:58;2.90;;;1.60;;
62535;SDS011;63050;47.514;18.920;2023-06-10T15:01:00;2.60;;;1.80;;
62535;SDS011;63050;47.514;18.920;2023-06-10T15:06:03;3.60;;;2.00;;
62535;SDS011;63050;47.514;18.920;2023-06-10T15:11:04;2.20;;;1.60;;
62535;SDS011;63050;47.514;18.920;2023-06-10T15:16:05;2.60;;;1.80;;
62535;SDS011;63050;47.514;18.920;2023-06-10T15:21:07;2.30;;;1.50;;
62535;SDS011;63050;47.514;18.920;2023-06-10T15:26:09;2.60;;;1.50;;
62535;SDS011;63050;47.514;18.920;2023-06-10T15:31:10;2.30;;;1.70;;
62535;SDS011;63050;47.514;18.920;2023-06-10T15:36:13;2.60;;;1.80;;
62535;SDS011;63050;47.514;18.920;2023-06-10T15:41:14;2.70;;;2.00;;
62535;SDS011;63050;47.514;18.920;2023-06-10T15:46:16;2.80;;;1.90;;
62535;SDS011;63050;47.514;18.920;2023-06-10T15:51:18;3.00;;;1.80;;
62535;SDS011;63050;47.514;18.920;2023-06-10T15:56:20;3.70;;;2.00;;
62535;SDS011;63050;47.514;18.920;2023-06-10T16:01:21;3.40;;;2.10;;
62535;SDS011;63050;47.514;18.920;2023-06-10T16:06:23;3.30;;;2.00;;
62535;SDS011;63050;47.514;18.920;2023-06-10T16:11:24;3.10;;;2.00;;
62535;SDS011;63050;47.514;18.920;2023-06-10T16:16:26;2.60;;;2.20;;
62535;SDS011;63050;47.514;18.920;2023-06-10T16:21:28;3.50;;;2.40;;
62535;SDS011;63050;47.514;18.920;2023-06-10T16:26:30;3.20;;;2.30;;
62535;SDS011;63050;47.514;18.920;2023-06-10T16:31:32;5.50;;;3.20;;
62535;SDS011;63050;47.514;18.920;2023-06-10T16:36:33;3.70;;;2.10;;
62535;SDS011;63050;47.514;18.920;2023-06-10T16:41:36;4.90;;;2.50;;
62535;SDS011;63050;47.514;18.920;2023-06-10T16:46:37;2.90;;;2.20;;
62535;SDS011;63050;47.514;18.920;2023-06-10T16:51:38;3.80;;;2.20;;
62535;SDS011;63050;47.514;18.920;2023-06-10T16:56:40;3.50;;;2.60;;
62535;SDS011;63050;47.514;18.920;2023-06-10T17:01:41;3.10;;;2.20;;
62535;SDS011;63050;47.514;18.920;2023-06-10T17:06:43;4.40;;;2.50;;
62535;SDS011;63050;47.514;18.920;2023-06-10T17:11:44;8.00;;;2.70;;
62535;SDS011;63050;47.514;18.920;2023-06-10T17:16:45;4.50;;;2.40;;
62535;SDS011;63050;47.514;18.920;2023-06-10T17:21:47;6.10;;;3.00;;
62535;SDS011;63050;47.514;18.920;2023-06-10T17:26:48;4.00;;;2.40;;
62535;SDS011;63050;47.514;18.920;2023-06-10T17:31:50;3.60;;;2.50;;
62535;SDS011;63050;47.514;18.920;2023-06-10T17:36:52;4.50;;;2.50;;
62535;SDS011;63050;47.514;18.920;2023-06-10T17:41:53;4.10;;;2.50;;
62535;SDS011;63050;47.514;18.920;2023-06-10T17:46:55;4.50;;;2.80;;
62535;SDS011;63050;47.514;18.920;2023-06-10T17:51:56;4.20;;;2.70;;
62535;SDS011;63050;47.514;18.920;2023-06-10T17:56:57;3.60;;;2.50;;
62535;SDS011;63050;47.514;18.920;2023-06-10T18:01:59;4.70;;;2.60;;
62535;SDS011;63050;47.514;18.920;2023-06-10T18:07:01;4.20;;;2.60;;
62535;SDS011;63050;47.514;18.920;2023-06-10T18:12:02;6.50;;;2.90;;
62535;SDS011;63050;47.514;18.920;2023-06-10T18:17:04;4.80;;;2.40;;
62535;SDS011;63050;47.514;18.920;2023-06-10T18:22:06;5.30;;;2.50;;
62535;SDS011;63050;47.514;18.920;2023-06-10T18:27:08;4.20;;;2.80;;
62535;SDS011;63050;47.514;18.920;2023-06-10T18:32:09;6.20;;;2.90;;
62535;SDS011;63050;47.514;18.920;2023-06-10T18:37:11;4.40;;;2.70;;
62535;SDS011;63050;47.514;18.920;2023-06-10T18:42:12;4.10;;;2.80;;
62535;SDS011;63050;47.514;18.920;2023-06-10T18:47:13;5.20;;;2.90;;
62535;SDS011;63050;47.514;18.920;2023-06-10T18:52:14;3.40;;;3.00;;
62535;SDS011;63050;47.514;18.920;2023-06-10T18:57:15;4.70;;;3.10;;
62535;SDS011;63050;47.514;18.920;2023-06-10T19:02:16;4.60;;;2.80;;
62535;SDS011;63050;47.514;18.920;2023-06-10T19:07:18;6.30;;;3.30;;
62535;SDS011;63050;47.514;18.920;2023-06-10T19:12:20;8.00;;;3.10;;
62535;SDS011;63050;47.514;18.920;2023-06-10T19:17:23;7.30;;;3.80;;
62535;SDS011;63050;47.514;18.920;2023-06-10T19:22:24;5.10;;;4.40;;
62535;SDS011;63050;47.514;18.920;2023-06-10T19:27:27;7.10;;;4.80;;
62535;SDS011;63050;47.514;18.920;2023-06-10T19:32:28;4.90;;;3.50;;
62535;SDS011;63050;47.514;18.920;2023-06-10T19:37:30;5.50;;;3.30;;
62535;SDS011;63050;47.514;18.920;2023-06-10T19:42:31;6.30;;;3.10;;
62535;SDS011;63050;47.514;18.920;2023-06-10T19:47:33;4.20;;;2.80;;
62535;SDS011;63050;47.514;18.920;2023-06-10T19:52:34;4.10;;;2.90;;
62535;SDS011;63050;47.514;18.920;2023-06-10T19:57:35;5.60;;;3.50;;
62535;SDS011;63050;47.514;18.920;2023-06-10T20:02:37;4.00;;;3.00;;
62535;SDS011;63050;47.514;18.920;2023-06-10T20:07:39;4.50;;;2.90;;
62535;SDS011;63050;47.514;18.920;2023-06-10T20:12:40;5.80;;;3.40;;
62535;SDS011;63050;47.514;18.920;2023-06-10T20:17:42;5.30;;;3.10;;
62535;SDS011;63050;47.514;18.920;2023-06-10T20:22:43;4.80;;;3.00;;
62535;SDS011;63050;47.514;18.920;2023-06-10T20:27:44;6.00;;;3.10;;
62535;SDS011;63050;47.514;18.920;2023-06-10T20:32:46;3.90;;;3.50;;
62535;SDS011;63050;47.514;18.920;2023-06-10T20:37:48;6.70;;;3.20;;
62535;SDS011;63050;47.514;18.920;2023-06-10T20:42:50;5.00;;;3.70;;
62535;SDS011;63050;47.514;18.920;2023-06-10T20:47:51;4.50;;;3.00;;
62535;SDS011;63050;47.514;18.920;2023-06-10T20:52:52;6.30;;;3.60;;
62535;SDS011;63050;47.514;18.920;2023-06-10T20:58:12;3.60;;;3.00;;
62535;SDS011;63050;47.514;18.920;2023-06-10T21:03:13;5.70;;;3.20;;
62535;SDS011;63050;47.514;18.920;2023-06-10T21:08:15;5.20;;;3.70;;
62535;SDS011;63050;47.514;18.920;2023-06-10T21:13:16;5.30;;;3.80;;
62535;SDS011;63050;47.514;18.920;2023-06-10T21:18:18;5.20;;;3.60;;
62535;SDS011;63050;47.514;18.920;2023-06-10T21:23:19;4.90;;;3.50;;
62535;SDS011;63050;47.514;18.920;2023-06-10T21:28:20;8.50;;;3.70;;
62535;SDS011;63050;47.514;18.920;2023-06-10T21:33:21;5.20;;;3.50;;
62535;SDS011;63050;47.514;18.920;2023-06-10T21:38:24;5.10;;;3.50;;
62535;SDS011;63050;47.514;18.920;2023-06-10T21:43:26;6.20;;;3.50;;
62535;SDS011;63050;47.514;18.920;2023-06-10T21:48:27;4.90;;;3.50;;
62535;SDS011;63050;47.514;18.920;2023-06-10T21:53:28;4.80;;;3.60;;
62535;SDS011;63050;47.514;18.920;2023-06-10T21:58:29;6.00;;;4.00;;
62535;SDS011;63050;47.514;18.920;2023-06-10T22:03:30;6.20;;;4.30;;
62535;SDS011;63050;47.514;18.920;2023-06-10T22:08:32;6.70;;;3.90;;
62535;SDS011;63050;47.514;18.920;2023-06-10T22:13:34;6.60;;;4.70;;
62535;SDS011;63050;47.514;18.920;2023-06-10T22:18:36;5.50;;;4.50;;
62535;SDS011;63050;47.514;18.920;2023-06-10T22:23:37;5.30;;;4.30;;
62535;SDS011;63050;47.514;18.920;2023-06-10T22:28:39;7.60;;;4.60;;
62535;SDS011;63050;47.514;18.920;2023-06-10T22:33:40;5.00;;;4.20;;
62535;SDS011;63050;47.514;18.920;2023-06-10T22:38:42;5.30;;;4.40;;
62535;SDS011;63050;47.514;18.920;2023-06-10T22:43:43;6.80;;;4.60;;
62535;SDS011;63050;47.514;18.920;2023-06-10T22:48:44;7.30;;;4.60;;
62535;SDS011;63050;47.514;18.920;2023-06-10T22:53:46;6.50;;;4.70;;
62535;SDS011;63050;47.514;18.920;2023-06-10T22:58:48;7.60;;;4.70;;
62535;SDS011;63050;47.514;18.920;2023-06-10T23:03:49;6.40;;;5.00;;
62535;SDS011;63050;47.514;18.920;2023-06-10T23:08:51;7.60;;;5.20;;
62535;SDS011;63050;47.514;18.920;2023-06-10T23:13:53;7.90;;;5.70;;
62535;SDS011;63050;47.514;18.920;2023-06-10T23:18:55;6.20;;;5.30;;
62535;SDS011;63050;47.514;18.920;2023-06-10T23:23:57;6.70;;;6.00;;
62535;SDS011;63050;47.514;18.920;2023-06-10T23:28:59;9.20;;;6.20;;
62535;SDS011;63050;47.514;18.920;2023-06-10T23:34:00;6.50;;;5.80;;
62535;SDS011;63050;47.514;18.920;2023-06-10T23:39:03;5.50;;;5.00;;
62535;SDS011;63050;47.514;18.920;2023-06-10T23:44:04;8.50;;;6.10;;
62535;SDS011;63050;47.514;18.920;2023-06-10T23:49:06;6.60;;;5.80;;
62535;SDS011;63050;47.514;18.920;2023-06-10T23:54:09;6.70;;;5.40;;
62535;SDS011;63050;47.514;18.920;2023-06-10T23:59:13;6.80;;;5.80;;
